Time;durP1;ratioP1;P1;durP2;ratioP2;P2;SDS_P1;SDS_P2;PMS_P1;PMS_P2;Temp;Humidity;BMP_temperature;BMP_pressure;BME280_temperature;BME280_humidity;BME280_pressure;Samples;Min_cycle;Max_cycle;Signal;HPM_P1;HPM_P2
2020/12/29 00:02:09;;;;;;;16.32;7.62;;;;;;;4.21;73.77;97743.93;4772644;61;1134248;-88
2020/12/29 00:07:15;;;;;;;18.10;7.40;;;;;;;4.22;73.87;97745.09;4765823;61;1134312;-88
2020/12/29 00:12:20;;;;;;;18.07;8.17;;;;;;;4.26;73.67;97744.32;4768295;61;1134282;-88
2020/12/29 00:17:26;;;;;;;16.40;7.37;;;;;;;4.30;73.38;97740.41;4784039;60;1134241;-88
2020/12/29 00:22:32;;;;;;;19.77;8.33;;;;;;;4.34;73.18;97729.18;4771032;61;1134633;-88
2020/12/29 00:27:38;;;;;;;24.07;8.23;;;;;;;4.38;73.18;97723.99;4772470;61;1134095;-87
2020/12/29 00:32:43;;;;;;;13.77;5.97;;;;;;;4.40;73.04;97723.36;4770823;61;1134258;-88
2020/12/29 00:37:49;;;;;;;13.73;6.33;;;;;;;4.40;73.21;97712.90;4864223;60;21171;-87
2020/12/29 00:42:54;;;;;;;12.17;5.47;;;;;;;4.45;73.59;97718.48;4767401;61;1130241;-87
2020/12/29 00:48:00;;;;;;;15.57;6.60;;;;;;;4.42;74.78;97722.25;4773099;61;1134426;-88
2020/12/29 00:53:06;;;;;;;16.60;7.13;;;;;;;4.39;75.66;97721.23;4790052;61;1134112;-88
2020/12/29 00:58:14;;;;;;;14.80;6.60;;;;;;;4.31;76.50;97713.28;4817415;61;1134252;-88
2020/12/29 01:03:19;;;;;;;17.70;7.57;;;;;;;4.26;77.65;97719.47;4738300;61;1135155;-88
2020/12/29 01:08:25;;;;;;;12.23;6.40;;;;;;;4.20;78.30;97707.79;4773031;61;1134149;-88
2020/12/29 01:13:32;;;;;;;15.03;7.03;;;;;;;4.18;78.57;97703.67;4830971;61;21168;-88
2020/12/29 01:18:39;;;;;;;14.40;7.27;;;;;;;4.14;78.95;97707.55;4748033;61;1130111;-89
2020/12/29 01:23:44;;;;;;;11.87;6.13;;;;;;;4.12;79.31;97714.74;4739764;61;1134203;-88
2020/12/29 01:28:50;;;;;;;13.00;6.43;;;;;;;4.13;79.43;97707.20;4788854;61;1136223;-89
2020/12/29 01:33:59;;;;;;;10.27;4.93;;;;;;;4.10;79.94;97712.27;4730894;61;1134244;-89
2020/12/29 01:39:05;;;;;;;14.13;6.80;;;;;;;4.08;80.20;97702.44;4732029;61;1134420;-89
2020/12/29 01:44:19;;;;;;;17.98;8.60;;;;;;;4.10;80.08;97693.96;4730571;61;1136367;-89
2020/12/29 01:49:24;;;;;;;16.77;6.87;;;;;;;4.10;80.06;97687.91;4725087;61;1134231;-89
2020/12/29 01:54:32;;;;;;;13.13;6.17;;;;;;;4.10;80.07;97685.30;4738860;61;1134795;-89
2020/12/29 01:59:37;;;;;;;11.03;6.03;;;;;;;4.12;80.18;97686.80;4740010;60;1136697;-88
2020/12/29 02:04:44;;;;;;;22.07;8.60;;;;;;;4.14;79.85;97671.75;4800302;61;1134298;-89
2020/12/29 02:09:51;;;;;;;15.90;6.73;;;;;;;4.16;79.88;97675.05;4780080;61;1134395;-89
2020/12/29 02:14:58;;;;;;;15.00;7.03;;;;;;;4.20;79.60;97661.19;4800962;61;1136289;-89
2020/12/29 02:20:07;;;;;;;11.60;6.37;;;;;;;4.20;79.65;97664.62;4781408;60;1134469;-88
2020/12/29 02:25:13;;;;;;;12.13;6.30;;;;;;;4.20;79.64;97655.48;4778563;61;1134139;-89
2020/12/29 02:30:20;;;;;;;19.10;9.30;;;;;;;4.27;79.35;97658.81;4781227;61;1136230;-89
2020/12/29 02:35:26;;;;;;;22.87;9.90;;;;;;;4.27;79.57;97662.25;4780038;61;1134562;-89
2020/12/29 02:40:31;;;;;;;30.20;12.58;;;;;;;4.27;79.64;97653.58;4782634;61;1134359;-89
2020/12/29 02:45:37;;;;;;;9.27;5.63;;;;;;;4.29;79.87;97660.28;4800556;61;1138925;-89
2020/12/29 02:50:42;;;;;;;11.07;6.40;;;;;;;4.28;80.18;97651.30;4782790;61;1132024;-89
2020/12/29 02:55:47;;;;;;;11.37;6.30;;;;;;;4.26;80.42;97649.32;4779970;61;1134211;-89
2020/12/29 03:00:53;;;;;;;12.30;6.67;;;;;;;4.29;80.46;97648.52;4798556;60;1134220;-88
2020/12/29 03:05:58;;;;;;;13.80;6.67;;;;;;;4.29;81.06;97648.52;4779252;61;1136672;-89
2020/12/29 03:11:06;;;;;;;14.87;7.60;;;;;;;4.27;81.58;97650.48;4799310;61;1134273;-90
2020/12/29 03:16:11;;;;;;;18.60;9.45;;;;;;;4.28;81.28;97648.69;4783447;61;1134329;-89
2020/12/29 03:21:17;;;;;;;14.33;7.23;;;;;;;4.27;82.36;97640.50;4817570;61;1136350;-89
2020/12/29 03:26:25;;;;;;;17.30;7.50;;;;;;;4.26;82.34;97646.22;4773727;61;1134801;-89
2020/12/29 03:31:31;;;;;;;12.07;7.63;;;;;;;4.24;82.54;97645.06;4780227;60;1134405;-90
2020/12/29 03:36:36;;;;;;;16.17;9.50;;;;;;;4.26;82.76;97642.30;4799870;61;1136231;-91
2020/12/29 03:41:42;;;;;;;12.60;7.43;;;;;;;4.28;82.94;97643.45;4780750;61;1136455;-90
2020/12/29 03:46:47;;;;;;;15.23;7.47;;;;;;;4.27;83.12;97649.66;4783572;61;1134154;-91
2020/12/29 03:51:53;;;;;;;13.53;7.60;;;;;;;4.28;83.52;97642.94;4780282;61;1136482;-92
2020/12/29 03:56:59;;;;;;;15.23;7.37;;;;;;;4.31;83.37;97637.41;4838201;61;1136250;-90
2020/12/29 04:02:04;;;;;;;15.15;7.62;;;;;;;4.34;83.42;97636.30;4779968;61;1136645;-91
2020/12/29 04:07:10;;;;;;;18.67;9.03;;;;;;;4.35;84.36;97636.64;4819453;61;1136707;-91
2020/12/29 04:12:15;;;;;;;12.23;6.97;;;;;;;4.34;83.60;97638.43;4816968;61;1134308;-90
2020/12/29 04:17:21;;;;;;;15.32;7.28;;;;;;;4.34;84.47;97632.38;4780652;61;1136496;-92
2020/12/29 04:22:28;;;;;;;13.67;8.50;;;;;;;4.33;85.43;97628.11;4801374;61;1136658;-91
2020/12/29 04:27:34;;;;;;;16.07;8.37;;;;;;;4.38;84.72;97636.34;4802292;61;1136232;-92
2020/12/29 04:32:40;;;;;;;13.80;6.17;;;;;;;4.41;84.95;97637.36;4781211;61;1136705;-92
2020/12/29 04:37:45;;;;;;;12.27;7.03;;;;;;;4.43;84.72;97635.41;4782869;61;1136210;-92
2020/12/29 04:42:54;;;;;;;8.77;5.17;;;;;;;4.40;84.95;97638.33;4781941;61;1134335;-91
2020/12/29 04:48:00;;;;;;;18.23;7.30;;;;;;;4.42;84.82;97632.46;4801880;61;1134170;-91
2020/12/29 04:53:08;;;;;;;9.73;6.37;;;;;;;4.42;84.70;97631.97;4783284;61;1136674;-92
2020/12/29 04:58:17;;;;;;;12.67;7.40;;;;;;;4.48;85.32;97629.22;4836120;61;1134096;-92
2020/12/29 05:03:23;;;;;;;10.23;6.80;;;;;;;4.50;85.05;97631.20;4774681;60;1136341;-92
2020/12/29 05:08:28;;;;;;;9.97;6.87;;;;;;;4.48;86.16;97622.67;4750897;61;1134145;-92
2020/12/29 05:13:34;;;;;;;13.40;7.70;;;;;;;4.48;86.02;97622.67;4770039;61;1134343;-92
2020/12/29 05:18:40;;;;;;;10.97;6.53;;;;;;;4.51;85.82;97625.00;4728115;61;1136920;-92
2020/12/29 05:23:45;;;;;;;11.27;6.73;;;;;;;4.54;85.51;97629.45;4748966;61;1136184;-91
2020/12/29 05:28:51;;;;;;;24.23;9.30;;;;;;;4.58;86.01;97632.59;4736377;61;1136631;-91
2020/12/29 05:33:56;;;;;;;43.40;22.17;;;;;;;4.58;85.84;97637.83;4732868;61;1136222;-91
2020/12/29 05:39:10;;;;;;;11.90;7.07;;;;;;;4.61;85.99;97638.80;4748010;61;1138819;-92
2020/12/29 05:44:32;;;;;;;10.70;6.25;;;;;;;4.62;86.00;97633.91;4736451;61;1136517;-91
2020/12/29 05:49:37;;;;;;;13.67;6.53;;;;;;;4.65;85.77;97642.77;4760613;61;1136317;-91
2020/12/29 05:54:45;;;;;;;12.37;6.90;;;;;;;4.73;85.71;97643.34;4722666;61;1136379;-91
2020/12/29 05:59:51;;;;;;;10.43;7.13;;;;;;;4.76;85.49;97639.08;4669325;61;1136711;-91
2020/12/29 06:04:59;;;;;;;10.80;6.60;;;;;;;4.75;85.74;97639.56;4708749;60;1134202;-91
2020/12/29 06:10:04;;;;;;;14.77;6.87;;;;;;;4.76;85.38;97639.08;4723598;60;1136769;-91
2020/12/29 06:15:11;;;;;;;11.12;6.60;;;;;;;4.76;85.89;97637.77;4727331;61;1136563;-91
2020/12/29 06:20:18;;;;;;;12.07;7.10;;;;;;;4.78;85.74;97643.19;4836247;60;1137014;-91
2020/12/29 06:25:26;;;;;;;32.30;12.80;;;;;;;4.78;85.99;97644.98;4843640;59;1136162;-91
2020/12/29 06:30:34;;;;;;;70.97;26.97;;;;;;;4.79;85.39;97649.25;4847299;59;1136411;-92
2020/12/29 06:35:39;;;;;;;32.57;16.50;;;;;;;4.82;85.08;97655.02;4845508;59;1138480;-92
2020/12/29 06:40:47;;;;;;;12.00;6.30;;;;;;;4.86;84.86;97661.59;4847566;59;1138299;-91
2020/12/29 06:45:53;;;;;;;50.93;16.47;;;;;;;4.87;84.72;97671.58;4842816;59;1136531;-90
2020/12/29 06:51:13;;;;;;;50.97;18.63;;;;;;;4.81;84.58;97678.23;4863089;59;1138201;-91
2020/12/29 06:56:19;;;;;;;22.43;11.50;;;;;;;4.77;84.39;97676.06;4860567;60;1138456;-91
2020/12/29 07:01:27;;;;;;;13.20;8.50;;;;;;;4.73;84.46;97687.84;4840806;60;1138546;-91
2020/12/29 07:06:35;;;;;;;71.67;23.50;;;;;;;4.72;84.49;97691.43;4859590;60;1136221;-92
2020/12/29 07:12:07;;;;;;;14.73;8.35;;;;;;;4.66;84.57;97688.92;4814150;59;1136357;-92
2020/12/29 07:17:14;;;;;;;18.00;8.13;;;;;;;4.66;84.79;97701.19;4825813;59;1136525;-92
2020/12/29 07:22:21;;;;;;;17.90;8.63;;;;;;;4.60;84.91;97715.20;4777914;60;1136556;-91
2020/12/29 07:27:30;;;;;;;15.30;8.57;;;;;;;4.54;85.06;97722.84;4669375;60;1136724;-91
2020/12/29 07:32:36;;;;;;;18.73;9.43;;;;;;;4.49;85.51;97738.16;4705393;61;1136383;-91
2020/12/29 07:37:43;;;;;;;15.47;8.77;;;;;;;4.46;84.91;97735.35;4789887;60;1136104;-91
2020/12/29 07:42:49;;;;;;;17.03;9.53;;;;;;;4.45;84.69;97745.48;4812518;60;1136255;-92
2020/12/29 07:47:55;;;;;;;28.20;14.17;;;;;;;4.47;84.63;97754.49;4809721;60;1136220;-92
2020/12/29 07:53:12;;;;;;;31.13;14.10;;;;;;;4.45;84.72;97764.28;4811400;59;1138539;-93
2020/12/29 07:58:17;;;;;;;22.03;12.57;;;;;;;4.38;84.67;97764.06;4836001;60;1138408;-91
2020/12/29 08:03:23;;;;;;;31.00;10.93;;;;;;;4.33;85.02;97778.55;4808152;60;1138582;-91
2020/12/29 08:08:28;;;;;;;19.70;10.00;;;;;;;4.24;85.44;97793.34;4748347;60;1136275;-92
2020/12/29 08:13:34;;;;;;;17.30;8.63;;;;;;;4.16;85.60;97795.37;4849004;59;1136691;-91
2020/12/29 08:18:39;;;;;;;13.10;7.73;;;;;;;4.08;85.30;97812.28;4847613;59;1134082;-91
2020/12/29 08:23:45;;;;;;;12.37;7.13;;;;;;;3.99;85.55;97830.61;4850039;59;1134577;-91
2020/12/29 08:28:52;;;;;;;14.30;6.70;;;;;;;3.85;85.55;97832.72;4870218;59;1134015;-92
2020/12/29 08:34:00;;;;;;;10.53;6.53;;;;;;;3.63;85.16;97840.09;4853593;59;1134139;-91
2020/12/29 08:39:12;;;;;;;12.87;7.83;;;;;;;3.46;85.40;97850.30;4851011;59;1134253;-91
2020/12/29 08:44:19;;;;;;;16.10;7.30;;;;;;;3.31;84.95;97849.07;4853494;59;1134291;-92
2020/12/29 08:49:32;;;;;;;14.63;8.70;;;;;;;3.22;84.95;97856.89;4871800;59;1134576;-91
2020/12/29 08:54:39;;;;;;;21.68;11.22;;;;;;;3.13;84.90;97870.31;4850438;59;1134267;-91
2020/12/29 08:59:47;;;;;;;14.37;8.57;;;;;;;3.08;84.87;97867.27;4848916;59;1136302;-91
2020/12/29 09:05:00;;;;;;;18.33;10.40;;;;;;;3.09;84.86;97878.89;4854401;59;1134535;-90
2020/12/29 09:10:07;;;;;;;16.90;10.10;;;;;;;3.13;84.87;97884.19;4861413;59;1136422;-91
2020/12/29 09:15:31;;;;;;;16.70;10.38;;;;;;;3.16;84.64;97880.48;4803337;60;1136754;-91
2020/12/29 09:20:37;;;;;;;14.87;8.63;;;;;;;3.21;84.47;97885.31;4798081;60;1138702;-91
2020/12/29 09:25:46;;;;;;;18.10;10.33;;;;;;;3.24;84.52;97895.45;4808741;60;1134379;-90
2020/12/29 09:31:05;;;;;;;19.20;8.77;;;;;;;3.26;84.35;97911.34;4796799;60;1136060;-90
2020/12/29 09:36:28;;;;;;;17.15;10.93;;;;;;;3.25;84.20;97912.30;4800864;60;1134599;-89
2020/12/29 09:41:34;;;;;;;18.37;10.50;;;;;;;3.25;84.33;97924.05;4789433;60;1138591;-89
2020/12/29 09:46:40;;;;;;;20.10;12.07;;;;;;;3.27;84.51;97939.59;4834049;60;1136055;-89
2020/12/29 09:51:46;;;;;;;25.63;12.97;;;;;;;3.27;84.37;97948.73;4817439;60;1136278;-90
2020/12/29 09:56:51;;;;;;;19.17;10.47;;;;;;;3.29;84.40;97949.42;4810524;60;1136500;-89
2020/12/29 10:01:57;;;;;;;28.27;14.17;;;;;;;3.24;84.59;97945.91;4634373;62;1136204;-89
2020/12/29 10:07:02;;;;;;;28.47;13.70;;;;;;;3.31;84.55;97964.01;4823626;60;1136588;-89
2020/12/29 10:12:08;;;;;;;20.57;11.50;;;;;;;3.34;84.51;97971.58;4798439;60;1136342;-88
2020/12/29 10:17:13;;;;;;;27.03;15.53;;;;;;;3.35;84.51;97981.55;4835049;59;1136295;-89
2020/12/29 10:22:19;;;;;;;19.90;11.73;;;;;;;3.35;84.53;97985.47;4737584;60;1136714;-89
2020/12/29 10:27:25;;;;;;;19.27;10.00;;;;;;;3.38;84.59;97988.61;4860461;60;1138339;-88
2020/12/29 10:32:30;;;;;;;23.23;12.37;;;;;;;3.42;84.43;97994.39;4815894;59;1136553;-88
2020/12/29 10:37:36;;;;;;;23.70;13.47;;;;;;;3.41;84.54;97988.83;4811549;60;1136768;-89
2020/12/29 10:42:42;;;;;;;62.50;30.30;;;;;;;3.42;84.48;97992.61;4841775;59;1136514;-88
2020/12/29 10:47:48;;;;;;;49.93;23.40;;;;;;;3.43;84.59;97999.97;4826845;59;1136393;-88
2020/12/29 10:52:57;;;;;;;24.07;10.83;;;;;;;3.42;84.51;98013.52;4754659;60;1136471;-88
2020/12/29 10:58:04;;;;;;;20.40;9.17;;;;;;;3.43;84.43;98003.41;4779986;60;1136518;-88
2020/12/29 11:03:09;;;;;;;33.53;15.57;;;;;;;3.45;84.41;98013.25;4844284;58;1134287;-88
2020/12/29 11:08:15;;;;;;;37.70;14.30;;;;;;;3.47;84.18;98016.55;4819375;60;1136815;-88
2020/12/29 11:13:34;;;;;;;62.73;22.35;;;;;;;3.53;84.18;98032.16;4807541;59;1136603;-88
2020/12/29 11:18:40;;;;;;;50.33;18.50;;;;;;;3.56;84.18;98049.34;4804658;59;1136338;-87
2020/12/29 11:23:53;;;;;;;50.67;16.70;;;;;;;3.59;84.00;98060.84;4804842;60;1136243;-88
2020/12/29 11:29:01;;;;;;;175.97;59.00;;;;;;;3.57;83.83;98071.43;4812376;59;1136824;-87
2020/12/29 11:34:07;;;;;;;43.30;13.72;;;;;;;3.58;83.68;98074.39;4722147;60;1138396;-88
2020/12/29 11:39:12;;;;;;;27.98;15.78;;;;;;;3.59;83.65;98080.45;4655115;60;1136494;-87
2020/12/29 11:44:18;;;;;;;21.02;10.40;;;;;;;3.63;83.51;98090.51;4698310;61;1136403;-87
2020/12/29 11:49:23;;;;;;;34.75;16.85;;;;;;;3.62;83.33;98107.15;4694285;61;1136527;-87
2020/12/29 11:54:30;;;;;;;24.57;13.17;;;;;;;3.63;83.33;98117.95;4826450;60;1136314;-87
2020/12/29 11:59:37;;;;;;;29.40;14.03;;;;;;;3.66;83.09;98128.63;4906351;59;1136328;-87
2020/12/29 12:04:43;;;;;;;47.40;19.87;;;;;;;3.61;83.18;98125.09;4829536;60;1136634;-87
2020/12/29 12:09:48;;;;;;;28.57;13.80;;;;;;;3.72;83.10;98142.45;4831172;60;1136232;-87
2020/12/29 12:14:54;;;;;;;18.63;9.73;;;;;;;3.73;82.99;98148.84;4822483;59;1136398;-87
2020/12/29 12:19:59;;;;;;;40.90;16.20;;;;;;;3.75;82.79;98153.47;4761859;60;1134698;-86
2020/12/29 12:25:05;;;;;;;32.57;16.47;;;;;;;3.84;82.87;98159.66;4753774;60;1138577;-87
2020/12/29 12:30:11;;;;;;;23.87;11.67;;;;;;;3.92;82.73;98174.22;4767555;60;1136640;-87
2020/12/29 12:35:17;;;;;;;38.80;15.37;;;;;;;4.00;81.89;98184.81;4753627;60;1140869;-87
2020/12/29 12:40:22;;;;;;;21.35;11.73;;;;;;;4.17;82.04;98199.03;4801666;60;1138280;-87
2020/12/29 12:45:29;;;;;;;29.17;13.83;;;;;;;4.31;81.27;98188.64;4784564;60;1136458;-87
2020/12/29 12:50:34;;;;;;;27.63;15.40;;;;;;;4.50;81.37;98196.52;4767486;60;1138319;-87
2020/12/29 12:55:40;;;;;;;34.00;16.87;;;;;;;4.55;80.42;98209.55;4774302;60;1136513;-87
2020/12/29 13:00:45;;;;;;;43.43;16.60;;;;;;;4.65;80.01;98221.80;4759994;60;1136500;-87
2020/12/29 13:05:51;;;;;;;28.60;13.47;;;;;;;4.60;79.96;98230.88;4764102;60;1138574;-86
2020/12/29 13:10:57;;;;;;;18.90;10.43;;;;;;;4.45;79.87;98240.09;4763606;60;1136195;-87
2020/12/29 13:16:05;;;;;;;26.60;13.57;;;;;;;4.37;80.03;98249.13;4746490;60;1136444;-87
2020/12/29 13:21:18;;;;;;;33.00;16.23;;;;;;;4.28;79.91;98249.91;4753282;60;1136286;-88
2020/12/29 13:26:24;;;;;;;38.10;18.00;;;;;;;4.35;80.07;98262.82;4734748;60;1136898;-87
2020/12/29 13:31:30;;;;;;;29.00;13.23;;;;;;;4.59;80.43;98272.89;4743081;60;1136724;-87
2020/12/29 13:36:35;;;;;;;32.23;16.07;;;;;;;4.64;79.81;98279.05;4768140;60;1138268;-87
2020/12/29 13:41:41;;;;;;;22.97;11.67;;;;;;;4.52;79.73;98297.50;4737755;60;1136672;-87
2020/12/29 13:46:49;;;;;;;22.55;10.95;;;;;;;4.46;79.88;98299.33;4751058;60;1136267;-86
2020/12/29 13:51:56;;;;;;;33.87;17.07;;;;;;;4.45;80.04;98302.91;4748618;60;1138443;-87
2020/12/29 13:57:02;;;;;;;29.37;17.10;;;;;;;4.47;80.25;98317.17;4741948;60;1138433;-87
2020/12/29 14:02:08;;;;;;;21.87;11.97;;;;;;;4.45;80.11;98332.18;4748651;60;1136269;-86
2020/12/29 14:07:14;;;;;;;23.50;13.53;;;;;;;4.48;80.11;98337.98;4729834;60;1138483;-86
2020/12/29 14:12:19;;;;;;;37.08;17.62;;;;;;;4.55;79.94;98344.83;4761127;60;1136328;-86
2020/12/29 14:17:25;;;;;;;47.60;19.23;;;;;;;4.51;79.77;98352.59;4814768;59;1136539;-86
2020/12/29 14:22:30;;;;;;;20.13;11.07;;;;;;;4.48;79.71;98356.30;4816010;59;1138424;-86
2020/12/29 14:27:36;;;;;;;32.23;14.73;;;;;;;4.41;79.86;98355.67;4753773;60;1136236;-86
2020/12/29 14:32:47;;;;;;;38.13;22.63;;;;;;;4.36;80.04;98360.47;4779360;60;1136215;-89
2020/12/29 14:37:52;;;;;;;83.05;29.80;;;;;;;4.36;80.19;98363.09;4805993;60;1138799;-85
2020/12/29 14:42:58;;;;;;;46.93;23.00;;;;;;;4.33;80.11;98364.66;4774969;60;1136683;-87
2020/12/29 14:48:06;;;;;;;60.53;28.27;;;;;;;4.28;80.34;98369.48;4761348;60;1136447;-86
2020/12/29 14:53:12;;;;;;;47.07;22.67;;;;;;;4.23;80.19;98375.92;4777725;60;1136491;-88
2020/12/29 14:58:18;;;;;;;40.00;19.80;;;;;;;4.21;80.11;98375.70;4808348;60;1138799;-87
2020/12/29 15:03:23;;;;;;;54.00;26.43;;;;;;;4.20;80.14;98373.56;4783615;59;1136367;-91
2020/12/29 15:08:29;;;;;;;88.57;41.70;;;;;;;4.14;80.33;98381.92;4759101;59;1136242;-89
2020/12/29 15:13:36;;;;;;;34.43;19.07;;;;;;;4.15;80.39;98390.60;4793825;60;1136413;-90
2020/12/29 15:18:43;;;;;;;53.27;22.20;;;;;;;4.14;80.42;98392.39;4785713;60;1138802;-89
2020/12/29 15:23:49;;;;;;;33.50;16.40;;;;;;;4.13;80.38;98399.05;4821268;59;1136495;-89
2020/12/29 15:28:55;;;;;;;18.20;10.20;;;;;;;4.15;80.32;98404.98;4765469;60;1138407;-89
2020/12/29 15:34:00;;;;;;;18.85;9.38;;;;;;;4.17;80.41;98424.83;4784714;60;1136631;-89
2020/12/29 15:39:06;;;;;;;30.03;14.00;;;;;;;4.21;80.52;98433.26;4774751;60;1134710;-89
2020/12/29 15:44:18;;;;;;;19.17;10.53;;;;;;;4.26;80.49;98448.10;4775942;60;1138549;-90
2020/12/29 15:49:24;;;;;;;28.30;13.90;;;;;;;4.32;80.53;98451.97;4774127;60;1136201;-89
2020/12/29 15:54:30;;;;;;;31.73;13.85;;;;;;;4.32;80.60;98444.94;4773480;60;1136275;-88
2020/12/29 15:59:35;;;;;;;29.77;14.30;;;;;;;4.39;80.45;98446.09;4778556;60;1138413;-89
2020/12/29 16:04:41;;;;;;;42.57;18.17;;;;;;;4.40;80.49;98453.47;4756787;60;1136502;-88
2020/12/29 16:09:46;;;;;;;27.60;13.07;;;;;;;4.45;80.55;98469.11;4801752;60;1136244;-90
2020/12/29 16:14:52;;;;;;;29.00;13.40;;;;;;;4.49;80.30;98478.84;4781993;60;1138373;-89
2020/12/29 16:19:57;;;;;;;30.13;14.07;;;;;;;4.51;80.40;98486.09;4759762;60;1136661;-87
2020/12/29 16:25:03;;;;;;;31.63;13.70;;;;;;;4.50;80.39;98487.05;4758413;61;1136273;-89
2020/12/29 16:30:11;;;;;;;71.70;34.17;;;;;;;4.52;80.20;98498.22;4781757;61;1138460;-89
2020/12/29 16:35:16;;;;;;;102.75;45.63;;;;;;;4.53;80.27;98502.02;4757341;61;1138366;-91
2020/12/29 16:40:22;;;;;;;54.17;24.53;;;;;;;4.54;80.23;98517.25;4800450;62;21432;-91
2020/12/29 16:45:28;;;;;;;56.97;21.73;;;;;;;4.55;80.29;98535.45;4744324;61;1132798;-89
2020/12/29 16:50:38;;;;;;;28.43;13.67;;;;;;;4.56;80.04;98526.64;4756081;61;1136366;-88
2020/12/29 16:55:44;;;;;;;50.17;19.37;;;;;;;4.58;79.74;98533.05;4784472;61;1138758;-89
2020/12/29 17:00:50;;;;;;;32.23;11.57;;;;;;;4.59;80.04;98549.08;4763724;61;1136813;-89
2020/12/29 17:05:55;;;;;;;19.87;8.70;;;;;;;4.60;79.51;98541.58;4778387;61;1136186;-89
2020/12/29 17:11:01;;;;;;;21.53;9.63;;;;;;;4.64;79.51;98557.86;4762807;61;1136207;-90
2020/12/29 17:16:17;;;;;;;33.20;14.07;;;;;;;4.62;78.94;98567.16;4754306;61;1134198;-88
2020/12/29 17:21:25;;;;;;;20.80;7.60;;;;;;;4.64;78.69;98563.10;4751847;61;1136647;-89
2020/12/29 17:26:32;;;;;;;27.85;8.95;;;;;;;4.81;76.40;98587.39;4725108;60;1134183;-88
2020/12/29 17:31:38;;;;;;;27.83;8.83;;;;;;;4.81;76.40;98587.39;4721002;60;1134574;-89
2020/12/29 17:36:44;;;;;;;27.97;8.03;;;;;;;4.97;75.94;98600.02;4726980;60;1134301;-89
2020/12/29 17:41:49;;;;;;;32.27;12.17;;;;;;;5.03;76.07;98602.95;4736814;60;1134208;-90
2020/12/29 17:46:58;;;;;;;31.90;15.00;;;;;;;5.10;75.99;98611.10;4714582;61;1136332;-89
2020/12/29 17:52:04;;;;;;;119.70;63.43;;;;;;;5.09;76.60;98616.81;4737440;60;1136696;-91
2020/12/29 17:57:09;;;;;;;46.40;31.07;;;;;;;5.10;76.62;98626.34;4728027;60;1138348;-90
2020/12/29 18:02:16;;;;;;;83.03;57.60;;;;;;;5.08;76.63;98631.36;4733931;60;1136348;-89
2020/12/29 18:07:21;;;;;;;29.23;11.83;;;;;;;5.02;76.55;98636.66;4731742;60;1136322;-89
2020/12/29 18:12:27;;;;;;;20.60;9.17;;;;;;;5.00;76.61;98659.53;4717345;60;1146119;-89
2020/12/29 18:17:33;;;;;;;21.93;9.77;;;;;;;4.98;75.75;98663.23;4731408;60;1136246;-91
2020/12/29 18:22:41;;;;;;;22.10;10.30;;;;;;;4.93;76.09;98674.92;4799206;61;1134230;-91
2020/12/29 18:27:46;;;;;;;22.60;10.47;;;;;;;4.87;76.43;98680.69;4791306;60;1136458;-91
2020/12/29 18:32:51;;;;;;;22.33;10.73;;;;;;;4.85;76.36;98687.02;4795708;60;1138373;-90
2020/12/29 18:37:59;;;;;;;26.07;11.03;;;;;;;4.82;76.66;98702.97;4788406;59;1136751;-90
2020/12/29 18:43:05;;;;;;;43.02;16.30;;;;;;;4.77;76.40;98711.20;4792727;60;1136086;-90
2020/12/29 18:48:19;;;;;;;84.93;30.77;;;;;;;4.76;76.37;98713.47;4782631;60;1139093;-90
2020/12/29 18:53:20;;;;;;;97.80;29.87;;;;;;;4.73;76.66;98722.91;4778474;60;1136363;-90
2020/12/29 18:58:26;;;;;;;58.60;19.60;;;;;;;4.68;76.61;98734.70;4782561;60;1136308;-90
2020/12/29 19:03:32;;;;;;;83.45;24.50;;;;;;;4.63;76.49;98735.55;4815292;60;1136642;-91
2020/12/29 19:08:37;;;;;;;32.83;12.67;;;;;;;4.55;76.60;98740.12;4793655;60;1136335;-90
2020/12/29 19:13:43;;;;;;;32.83;12.30;;;;;;;4.49;76.66;98749.77;4787812;60;1136443;-90
2020/12/29 19:18:51;;;;;;;42.63;13.43;;;;;;;4.42;76.58;98757.30;4802460;59;1136373;-91
2020/12/29 19:23:57;;;;;;;51.40;17.97;;;;;;;4.37;76.79;98773.00;4788149;60;1136538;-90
2020/12/29 19:29:03;;;;;;;38.27;14.23;;;;;;;4.36;76.91;98779.19;4782346;59;1136290;-90
2020/12/29 19:34:08;;;;;;;37.78;12.80;;;;;;;4.34;76.92;98793.70;4752150;60;1136653;-89
2020/12/29 19:39:14;;;;;;;45.87;19.60;;;;;;;4.36;76.66;98811.91;4760695;60;1136340;-90
2020/12/29 19:44:19;;;;;;;24.70;11.23;;;;;;;4.40;76.65;98819.41;4750371;60;1136539;-90
2020/12/29 19:49:25;;;;;;;22.50;8.60;;;;;;;4.42;76.63;98851.52;4778312;60;1136224;-89
2020/12/29 19:54:32;;;;;;;13.68;6.05;;;;;;;4.47;76.43;98858.99;4760476;60;1134810;-90
2020/12/29 19:59:37;;;;;;;13.53;5.30;;;;;;;4.47;76.41;98878.15;4767934;61;1134459;-90
2020/12/29 20:04:46;;;;;;;16.60;6.87;;;;;;;4.47;76.37;98889.09;4755562;60;1134263;-90
2020/12/29 20:09:52;;;;;;;10.50;4.90;;;;;;;4.47;76.12;98901.70;4743990;59;1134647;-90
2020/12/29 20:14:57;;;;;;;12.00;4.23;;;;;;;4.47;75.99;98908.25;4782126;60;1134085;-92
2020/12/29 20:20:04;;;;;;;19.60;6.90;;;;;;;4.50;75.99;98911.95;4748597;59;1135511;-90
2020/12/29 20:25:10;;;;;;;27.97;10.03;;;;;;;4.47;75.59;98918.72;4757045;59;1134241;-90
2020/12/29 20:30:15;;;;;;;8.37;4.03;;;;;;;4.43;76.03;98931.69;4799516;59;1136159;-91
2020/12/29 20:35:21;;;;;;;9.30;4.37;;;;;;;4.37;75.91;98944.43;4768171;59;1132183;-91
2020/12/29 20:40:27;;;;;;;40.73;12.97;;;;;;;4.34;75.96;98953.83;4805591;60;1132462;-91
2020/12/29 20:45:33;;;;;;;13.33;5.10;;;;;;;4.28;76.08;98964.78;4783781;60;1136426;-91
2020/12/29 20:50:38;;;;;;;16.60;4.83;;;;;;;4.22;75.93;98969.99;4798457;60;1134180;-91
2020/12/29 20:55:44;;;;;;;15.87;7.17;;;;;;;4.20;76.01;98974.03;4787671;60;1134060;-91
2020/12/29 21:00:54;;;;;;;15.57;5.47;;;;;;;4.18;76.33;98969.86;4809282;60;1134098;-90
2020/12/29 21:05:58;;;;;;;13.10;6.30;;;;;;;4.19;76.36;98980.22;4826486;60;1134223;-90
2020/12/29 21:11:04;;;;;;;10.10;4.47;;;;;;;4.18;76.62;98977.23;4769119;60;1134308;-91
2020/12/29 21:16:09;;;;;;;8.90;4.03;;;;;;;4.19;76.38;98991.16;4793343;60;1134198;-91
2020/12/29 21:21:30;;;;;;;10.13;5.23;;;;;;;4.18;76.32;98996.86;4786600;60;1132286;-90
2020/12/29 21:26:36;;;;;;;13.38;5.55;;;;;;;4.18;76.53;99007.33;4779520;60;1134248;-89
2020/12/29 21:31:43;;;;;;;15.07;6.67;;;;;;;4.19;76.17;99012.09;4769879;60;1134216;-89
2020/12/29 21:36:49;;;;;;;18.50;6.37;;;;;;;4.17;76.32;99022.66;4772043;60;1134267;-90
2020/12/29 21:41:55;;;;;;;21.30;7.73;;;;;;;4.13;76.14;99026.45;4756310;60;1134387;-89
2020/12/29 21:47:00;;;;;;;137.50;45.57;;;;;;;4.04;76.09;99023.70;4785880;60;1134640;-89
2020/12/29 21:52:06;;;;;;;16.57;5.15;;;;;;;3.99;76.08;99024.03;4783953;60;1138319;-91
2020/12/29 21:57:11;;;;;;;22.67;6.60;;;;;;;3.94;75.96;99018.80;4796958;60;1134241;-90
2020/12/29 22:02:17;;;;;;;35.97;9.43;;;;;;;3.89;75.98;99029.59;4764046;59;1134676;-91
2020/12/29 22:07:22;;;;;;;15.33;5.17;;;;;;;3.83;75.93;99043.11;4808423;60;1134404;-90
2020/12/29 22:12:28;;;;;;;42.78;15.20;;;;;;;3.79;75.84;99052.16;4753135;60;1134390;-90
2020/12/29 22:17:33;;;;;;;16.47;5.67;;;;;;;3.76;75.89;99063.66;4799702;60;1136361;-91
2020/12/29 22:22:39;;;;;;;31.03;8.20;;;;;;;3.75;75.66;99076.84;4760449;60;1134117;-91
2020/12/29 22:27:44;;;;;;;10.37;3.50;;;;;;;3.72;75.80;99083.12;4789961;60;1134214;-91
2020/12/29 22:32:50;;;;;;;16.83;5.47;;;;;;;3.69;75.45;99093.80;4757068;60;1134760;-91
2020/12/29 22:37:56;;;;;;;13.40;5.70;;;;;;;3.69;75.51;99108.18;4742758;60;1134258;-91
2020/12/29 22:43:02;;;;;;;11.53;4.80;;;;;;;3.67;75.72;99119.69;4785794;60;1134456;-91
2020/12/29 22:48:08;;;;;;;10.68;4.65;;;;;;;3.66;75.62;99127.20;4794174;60;1134600;-90
2020/12/29 22:53:37;;;;;;;10.03;5.23;;;;;;;3.66;75.37;99122.80;4782956;60;1134134;-91
2020/12/29 22:59:10;;;;;;;17.20;7.05;;;;;;;3.63;75.34;99124.33;4749362;60;1134232;-90
2020/12/29 23:04:15;;;;;;;17.13;6.03;;;;;;;3.56;75.15;99121.77;4796913;60;1134124;-90
2020/12/29 23:09:21;;;;;;;16.17;4.73;;;;;;;3.48;75.20;99130.17;4761165;60;1134257;-90
2020/12/29 23:14:27;;;;;;;13.40;6.47;;;;;;;3.37;75.23;99123.53;4814824;60;1132163;-91
2020/12/29 23:19:33;;;;;;;11.13;5.13;;;;;;;3.40;75.22;99138.17;4760172;59;1134390;-90
2020/12/29 23:24:39;;;;;;;12.45;4.97;;;;;;;3.34;75.33;99139.45;4761052;60;1134276;-91